Terminal Aerodrome Forecast
Issued by NWS

Home | Current Version | Previous Version | Text Only | Print | Product List | Glossary On
Versions: 1 2 3 4 5 6 7 8 9 10 11 12 13 14 15
151
FTUS46 KHNX 061355 AAA
TAFMCE
TAF AMD
KMCE 061355Z 0614/0712 00000KT 1/4SM FG OVC004
     FM061800 33005KT 5SM BR SCT200
     FM070000 33007KT P6SM SKC
     FM070600 VRB03KT 4SM BR SKC=

USA.gov is the U.S. government's official web portal to all federal, state and local government web resources and services.